This is the latest recevied weather packets stored in our database for station/object EA1FWM-13. If no packets are shown the sender has not sent any weather packets the latest 10 day(s).
| Time | Temp. | Humidity | Pressure | Rain* | Wind** | Luminosity | Snow |
|---|---|---|---|---|---|---|---|
| 1777603907 | 12.22° C | 93% | 1021.6 hPa | - | - | - | - |
| 1777603006 | 12.22° C | 93% | 1021.8 hPa | - | - | - | - |
| 1777602105 | 12.22° C | 92% | 1021.8 hPa | - | - | - | - |
| 1777601204 | 12.22° C | 92% | 1021.7 hPa | - | - | - | - |
| 1777600304 | 12.22° C | 93% | 1021.8 hPa | - | - | - | - |
| 1777599403 | 12.78° C | 92% | 1021.9 hPa | - | - | - | - |
| 1777598502 | 12.78° C | 92% | 1022.2 hPa | - | - | - | - |
| 1777597601 | 12.78° C | 93% | 1022.2 hPa | - | - | - | - |
| 1777596700 | 12.22° C | 93% | 1022.2 hPa | - | - | - | - |
| 1777595799 | 12.22° C | 92% | 1022.2 hPa | - | - | - | - |
| 1777594898 | 12.22° C | 92% | 1022.1 hPa | - | - | - | - |
| 1777593997 | 12.22° C | 92% | 1022.1 hPa | - | - | - | - |
| 1777593097 | 12.78° C | 91% | 1022.1 hPa | - | - | - | - |
| 1777592196 | 12.78° C | 90% | 1022.1 hPa | - | - | - | - |
| 1777591295 | 13.33° C | 88% | 1022.1 hPa | - | - | - | - |
| 1777590394 | 13.33° C | 87% | 1022 hPa | - | - | - | - |
| 1777589492 | 13.33° C | 88% | 1022 hPa | - | - | - | - |
| 1777588591 | 13.89° C | 85% | 1021.8 hPa | - | - | - | - |
| 1777587691 | 13.89° C | 84% | 1022 hPa | - | - | - | - |
| 1777586790 | 14.44° C | 82% | 1022 hPa | - | - | - | - |
| 1777585889 | 13.89° C | 85% | 1021.9 hPa | - | - | - | - |
| 1777584988 | 13.89° C | 87% | 1021.8 hPa | - | - | - | - |
| 1777584087 | 13.89° C | 86% | 1021.7 hPa | - | - | - | - |
| 1777583186 | 15° C | 79% | 1021.7 hPa | - | - | - | - |
| 1777582285 | 15° C | 78% | 1021.5 hPa | - | - | - | - |
* Rain since midnight (hover to see other rain measurements)
** Current wind speed in m/s (hover to see current wind gust speed)